createdAt,value
2018-04-23T00:02:08.317Z,67.04
2018-04-23T00:04:34.974Z,68.00
2018-04-23T00:07:00.829Z,66.90
2018-04-23T00:09:26.664Z,66.28
2018-04-23T00:11:52.512Z,65.38
2018-04-23T00:14:18.372Z,64.73
2018-04-23T00:16:44.225Z,64.38
2018-04-23T00:19:10.085Z,64.88
2018-04-23T00:21:35.924Z,64.97
2018-04-23T00:24:01.800Z,65.04
2018-04-23T00:26:27.668Z,66.76
2018-04-23T00:28:53.525Z,65.10
2018-04-23T00:31:19.376Z,66.72
2018-04-23T00:33:45.219Z,65.68
2018-04-23T00:36:11.899Z,65.47
2018-04-23T00:38:37.738Z,66.05
2018-04-23T00:41:03.632Z,66.61
2018-04-23T00:43:29.485Z,66.18
2018-04-23T00:45:55.355Z,66.13
2018-04-23T00:48:21.213Z,65.72
2018-04-23T00:50:47.084Z,66.14
2018-04-23T00:53:25.480Z,66.81
2018-04-23T00:55:51.317Z,66.34
2018-04-23T00:58:17.208Z,66.21
2018-04-23T01:00:43.057Z,66.62
2018-04-23T01:03:08.945Z,66.79
2018-04-23T01:05:34.801Z,66.11
2018-04-23T01:08:00.666Z,66.42
2018-04-23T01:10:26.544Z,66.30
2018-04-23T01:12:52.427Z,67.62
2018-04-23T01:15:18.331Z,66.58
2018-04-23T01:17:44.201Z,67.60
2018-04-23T01:20:10.097Z,66.72
2018-04-23T01:22:35.932Z,66.82
2018-04-23T01:25:01.790Z,66.77
2018-04-23T01:27:27.645Z,66.62
2018-04-23T01:29:53.495Z,66.53
2018-04-23T01:32:19.352Z,67.90
2018-04-23T01:34:45.174Z,67.59
2018-04-23T01:37:11.867Z,67.75
2018-04-23T01:39:37.702Z,67.51
2018-04-23T01:42:03.572Z,67.20
2018-04-23T01:44:29.453Z,70.67
2018-04-23T01:46:55.301Z,71.19
2018-04-23T01:49:21.161Z,71.07
2018-04-23T01:51:47.497Z,71.28
2018-04-23T01:54:13.357Z,69.75
2018-04-23T01:56:39.229Z,69.33
2018-04-23T01:59:05.102Z,69.38
2018-04-23T02:01:30.952Z,69.05
2018-04-23T02:03:57.529Z,68.51
2018-04-23T02:06:23.388Z,68.60
2018-04-23T02:08:49.243Z,68.97
2018-04-23T02:11:15.117Z,69.11
2018-04-23T02:13:40.962Z,68.65
2018-04-23T02:16:06.869Z,68.93
2018-04-23T02:18:32.708Z,68.16
2018-04-23T02:20:58.552Z,68.23
2018-04-23T02:23:24.449Z,68.52
2018-04-23T02:25:50.319Z,68.82
2018-04-23T02:28:16.195Z,69.60
2018-04-23T02:30:42.055Z,69.88
2018-04-23T02:33:07.908Z,70.84
2018-04-23T02:35:33.813Z,71.15
2018-04-23T02:37:59.662Z,70.92
2018-04-23T02:40:25.949Z,70.22
2018-04-23T02:42:52.206Z,70.18
2018-04-23T02:45:18.072Z,70.18
2018-04-23T02:47:43.950Z,70.99
2018-04-23T02:50:09.869Z,71.25
2018-04-23T02:52:35.732Z,71.30
2018-04-23T02:55:01.640Z,71.06
2018-04-23T02:57:27.494Z,71.21
2018-04-23T02:59:53.373Z,71.24
2018-04-23T03:02:19.247Z,72.83
2018-04-23T03:04:45.129Z,74.97
2018-04-23T03:07:11.009Z,75.56
2018-04-23T03:09:36.896Z,75.90
2018-04-23T03:12:02.790Z,75.42
2018-04-23T03:14:28.625Z,74.33
2018-04-23T03:16:54.481Z,73.30
2018-04-23T03:19:20.359Z,72.97
2018-04-23T03:21:46.231Z,72.03
2018-04-23T03:24:12.109Z,71.33
2018-04-23T03:26:37.964Z,71.68
2018-04-23T03:29:03.813Z,71.45
2018-04-23T03:31:29.636Z,70.96
2018-04-23T03:33:55.487Z,71.25
2018-04-23T03:36:21.322Z,73.37
2018-04-23T03:38:47.219Z,74.76
2018-04-23T03:41:13.081Z,76.06
2018-04-23T03:43:38.953Z,75.71
2018-04-23T03:46:04.812Z,73.90
2018-04-23T03:48:30.722Z,73.50
2018-04-23T03:50:56.584Z,72.90
2018-04-23T03:53:22.442Z,72.31
2018-04-23T03:55:48.580Z,74.66
2018-04-23T03:58:14.457Z,76.41
2018-04-23T04:00:40.307Z,76.20
2018-04-23T04:03:06.155Z,75.59
2018-04-23T04:05:32.036Z,74.64
2018-04-23T04:07:57.904Z,74.00
2018-04-23T04:10:23.858Z,73.80
2018-04-23T04:16:05.995Z,72.58
2018-04-23T04:18:44.103Z,73.92
2018-04-23T04:21:09.974Z,74.51
2018-04-23T04:23:35.845Z,73.32
2018-04-23T04:26:01.694Z,73.58
2018-04-23T04:28:27.567Z,73.48
2018-04-23T04:30:53.460Z,73.62
2018-04-23T04:33:19.310Z,74.21
2018-04-23T04:35:45.210Z,75.19
2018-04-23T04:38:11.004Z,74.30
2018-04-23T04:40:36.825Z,73.31
2018-04-23T04:43:02.734Z,72.97
2018-04-23T04:45:28.869Z,72.94
2018-04-23T04:47:54.773Z,73.75
2018-04-23T04:50:20.717Z,74.22
2018-04-23T04:52:46.680Z,74.54
2018-04-23T04:55:12.550Z,73.22
2018-04-23T04:57:38.517Z,73.64
2018-04-23T05:00:04.750Z,73.13
2018-04-23T05:02:30.705Z,73.51
2018-04-23T05:04:56.554Z,74.42
2018-04-23T05:07:22.400Z,76.13
2018-04-23T05:09:48.251Z,76.85
2018-04-23T05:12:14.117Z,75.75
2018-04-23T05:14:39.960Z,76.20
2018-04-23T05:17:05.781Z,76.57
2018-04-23T05:29:16.642Z,73.32
2018-04-23T05:31:42.474Z,73.96
2018-04-23T05:34:08.333Z,73.91
2018-04-23T05:36:34.211Z,72.65
2018-04-23T05:39:00.076Z,72.11
2018-04-23T05:41:25.949Z,72.39
2018-04-23T05:43:51.837Z,72.42
2018-04-23T05:46:18.534Z,73.15
2018-04-23T05:48:44.413Z,73.96
2018-04-23T05:51:10.245Z,72.38
2018-04-23T05:53:36.119Z,72.77
2018-04-23T05:56:01.990Z,73.32
2018-04-23T05:58:27.863Z,72.59
2018-04-23T06:00:53.721Z,72.26
2018-04-23T06:03:19.605Z,73.06
2018-04-23T06:05:45.468Z,72.64
2018-04-23T06:08:11.337Z,72.09
2018-04-23T06:10:37.207Z,71.12
2018-04-23T06:13:03.053Z,71.92
2018-04-23T06:15:28.920Z,72.45
2018-04-23T06:17:54.774Z,72.03
2018-04-23T06:20:21.016Z,72.19
2018-04-23T06:22:46.868Z,73.05
2018-04-23T06:25:12.695Z,73.56
2018-04-23T06:27:38.537Z,73.00
2018-04-23T06:30:04.645Z,74.03
2018-04-23T06:32:30.511Z,73.93
2018-04-23T06:34:56.379Z,74.16
2018-04-23T06:37:22.232Z,75.73
2018-04-23T06:39:48.961Z,73.99
2018-04-23T06:42:14.813Z,74.22
2018-04-23T06:44:40.663Z,74.17
2018-04-23T06:47:06.574Z,74.21
2018-04-23T06:49:32.448Z,74.36
2018-04-23T06:51:58.291Z,74.41
2018-04-23T06:54:24.146Z,74.60
2018-04-23T06:56:49.992Z,72.96
2018-04-23T06:59:15.856Z,70.40
2018-04-23T07:01:41.717Z,69.50
2018-04-23T07:04:07.587Z,69.62
2018-04-23T07:06:33.449Z,69.48
2018-04-23T07:08:59.270Z,69.46
2018-04-23T07:11:25.148Z,68.38
2018-04-23T07:13:50.981Z,69.07
2018-04-23T07:16:16.862Z,68.37
2018-04-23T07:18:42.728Z,68.93
2018-04-23T07:21:08.600Z,66.90
2018-04-23T07:23:34.489Z,65.49
2018-04-23T07:26:00.408Z,64.94
2018-04-23T07:28:26.306Z,64.17
2018-04-23T07:30:52.200Z,62.44
2018-04-23T07:33:18.089Z,62.20
2018-04-23T07:35:43.960Z,57.27
2018-04-23T07:38:09.816Z,55.09
2018-04-23T07:40:35.639Z,52.26
2018-04-23T07:43:01.474Z,52.74
2018-04-23T07:45:27.332Z,52.40
2018-04-23T07:47:53.234Z,51.90
2018-04-23T07:50:19.028Z,50.64
2018-04-23T07:52:44.912Z,51.66
2018-04-23T07:55:10.800Z,50.53
2018-04-23T07:57:36.708Z,51.34
2018-04-23T08:00:03.429Z,51.06
2018-04-23T08:02:29.270Z,49.91
2018-04-23T08:04:55.105Z,50.14
2018-04-23T08:07:20.981Z,49.84
2018-04-23T08:09:47.553Z,49.26
2018-04-23T08:12:14.180Z,49.37
2018-04-23T08:14:39.993Z,49.39
2018-04-23T08:17:06.749Z,49.13
2018-04-23T08:19:33.494Z,48.60
2018-04-23T08:21:59.360Z,48.45
2018-04-23T08:24:25.270Z,48.09
2018-04-23T08:26:51.156Z,47.63
2018-04-23T08:29:17.016Z,47.50
2018-04-23T08:31:42.868Z,48.41
2018-04-23T08:34:08.740Z,48.92
2018-04-23T08:36:34.616Z,48.40
2018-04-23T08:39:00.450Z,48.64
2018-04-23T08:41:26.334Z,48.19
2018-04-23T08:43:52.230Z,48.17
2018-04-23T08:46:18.076Z,47.56
2018-04-23T08:48:43.911Z,47.79
2018-04-23T08:51:09.769Z,46.99
2018-04-23T08:53:35.593Z,48.20
2018-04-23T08:56:01.527Z,47.39
2018-04-23T08:58:27.425Z,47.63
2018-04-23T09:00:53.324Z,45.61
2018-04-23T09:03:19.220Z,46.21
2018-04-23T09:05:45.756Z,47.18
2018-04-23T09:08:11.613Z,46.18
2018-04-23T09:10:37.459Z,45.98
2018-04-23T09:13:03.281Z,46.28
2018-04-23T09:15:29.117Z,46.95
2018-04-23T09:17:55.005Z,46.76
2018-04-23T09:20:20.817Z,47.62
2018-04-23T09:22:46.657Z,47.12
2018-04-23T09:25:12.515Z,47.68
2018-04-23T09:27:38.371Z,47.77
2018-04-23T09:30:04.247Z,48.07
2018-04-23T09:32:31.048Z,47.17
2018-04-23T09:34:56.933Z,46.38
2018-04-23T09:37:23.634Z,45.58
2018-04-23T09:39:49.454Z,45.71
2018-04-23T09:42:15.324Z,45.64
2018-04-23T09:44:41.244Z,45.57
2018-04-23T09:47:07.106Z,45.86
2018-04-23T09:49:32.978Z,45.16
2018-04-23T09:51:58.833Z,45.16
2018-04-23T09:54:24.696Z,45.41
2018-04-23T09:56:50.541Z,45.85
2018-04-23T09:59:16.482Z,45.30
2018-04-23T10:01:48.565Z,45.80
2018-04-23T10:04:20.200Z,45.37
2018-04-23T10:06:46.046Z,45.98
2018-04-23T10:09:11.869Z,46.36
2018-04-23T10:11:37.741Z,45.83
2018-04-23T10:14:03.597Z,46.61
2018-04-23T10:16:29.490Z,47.54
2018-04-23T10:18:55.328Z,47.28
2018-04-23T10:21:21.185Z,47.92
2018-04-23T10:23:47.021Z,49.21
2018-04-23T10:26:12.897Z,58.06
2018-04-23T10:28:38.777Z,70.46
2018-04-23T10:31:04.671Z,81.40
2018-04-23T10:33:30.534Z,83.01
2018-04-23T10:35:56.405Z,83.14
2018-04-23T10:38:22.278Z,82.97
2018-04-23T10:40:48.141Z,82.57
2018-04-23T10:43:14.622Z,80.84
2018-04-23T10:45:40.501Z,82.16
2018-04-23T10:48:06.360Z,81.24
2018-04-23T10:50:32.210Z,80.81
2018-04-23T10:52:58.064Z,80.59
2018-04-23T10:55:23.911Z,81.78
2018-04-23T10:57:49.762Z,80.94
2018-04-23T11:00:15.613Z,80.02
2018-04-23T11:02:41.448Z,80.16
2018-04-23T11:05:07.309Z,79.99
2018-04-23T11:07:33.148Z,79.34
2018-04-23T11:09:59.024Z,80.42
2018-04-23T11:12:24.855Z,80.90
2018-04-23T11:14:50.744Z,80.75
2018-04-23T11:17:16.617Z,80.81
2018-04-23T11:19:42.465Z,80.09
2018-04-23T11:22:08.328Z,80.97
2018-04-23T11:24:34.205Z,79.41
2018-04-23T11:27:00.096Z,78.95
2018-04-23T11:29:26.877Z,79.61
2018-04-23T11:31:52.705Z,79.57
2018-04-23T11:34:18.596Z,81.54
2018-04-23T11:36:44.476Z,80.92
2018-04-23T11:39:10.340Z,80.07
2018-04-23T11:41:36.202Z,81.94
2018-04-23T11:44:02.075Z,83.73
2018-04-23T11:46:28.310Z,82.25
2018-04-23T11:48:54.190Z,82.95
2018-04-23T11:51:20.046Z,83.00
2018-04-23T11:53:45.899Z,82.84
2018-04-23T11:56:11.792Z,83.17
2018-04-23T11:58:43.862Z,82.65
2018-04-23T12:01:16.014Z,82.82
2018-04-23T12:03:41.879Z,82.08
2018-04-23T12:06:07.788Z,80.98
2018-04-23T12:08:33.614Z,81.16
2018-04-23T12:10:59.490Z,80.59
2018-04-23T12:13:25.334Z,80.07
2018-04-23T12:15:51.173Z,79.35
2018-04-23T12:18:17.009Z,78.44
2018-04-23T12:20:42.833Z,78.30
2018-04-23T12:23:08.693Z,76.12
2018-04-23T12:25:34.609Z,76.84
2018-04-23T12:28:00.520Z,75.21
2018-04-23T12:30:26.444Z,74.30
2018-04-23T12:32:52.337Z,73.88
2018-04-23T12:35:18.203Z,71.38
2018-04-23T12:37:44.060Z,70.16
2018-04-23T12:40:09.897Z,69.48
2018-04-23T12:42:35.770Z,71.46
2018-04-23T12:45:01.632Z,73.22
2018-04-23T12:47:27.481Z,71.12
2018-04-23T12:49:53.320Z,72.46
2018-04-23T12:52:19.170Z,71.20
2018-04-23T12:54:45.034Z,69.88
2018-04-23T12:57:11.017Z,70.65
2018-04-23T12:59:36.852Z,70.52
2018-04-23T13:02:02.703Z,70.29
2018-04-23T13:04:28.593Z,69.96
2018-04-23T13:06:54.428Z,66.26
2018-04-23T13:09:20.301Z,66.20
2018-04-23T13:11:46.164Z,66.85
2018-04-23T13:14:12.057Z,66.01
2018-04-23T13:16:37.953Z,63.81
2018-04-23T13:19:03.807Z,64.66
2018-04-23T13:21:29.683Z,65.02
2018-04-23T13:23:55.545Z,64.52
2018-04-23T13:26:21.421Z,64.08
2018-04-23T13:28:47.249Z,60.42
2018-04-23T13:31:13.085Z,58.98
2018-04-23T13:33:38.941Z,57.79
2018-04-23T13:36:04.805Z,57.38
2018-04-23T13:38:30.660Z,58.19
2018-04-23T13:40:56.517Z,58.07
2018-04-23T13:43:22.360Z,58.43
2018-04-23T13:45:48.221Z,55.87
2018-04-23T13:48:14.066Z,55.50
2018-04-23T13:50:40.894Z,53.69
2018-04-23T13:53:06.743Z,51.05
2018-04-23T13:55:32.589Z,53.61
2018-04-23T13:57:58.464Z,52.45
2018-04-23T14:00:24.321Z,51.75
2018-04-23T14:02:50.185Z,51.99
2018-04-23T14:05:16.035Z,52.41
2018-04-23T14:07:41.887Z,53.30
2018-04-23T14:10:07.744Z,54.00
2018-04-23T14:12:34.567Z,54.35
2018-04-23T14:15:00.454Z,54.81
2018-04-23T14:17:26.285Z,54.15
2018-04-23T14:19:52.117Z,55.11
2018-04-23T14:22:17.966Z,54.72
2018-04-23T14:24:43.804Z,54.65
2018-04-23T14:27:09.664Z,55.17
2018-04-23T14:29:35.535Z,54.33
2018-04-23T14:32:01.380Z,55.10
2018-04-23T14:34:27.209Z,54.61
2018-04-23T14:36:53.085Z,54.89
2018-04-23T14:39:20.251Z,55.35
2018-04-23T14:41:46.200Z,54.92
2018-04-23T14:44:12.236Z,55.21
2018-04-23T14:46:38.090Z,55.29
2018-04-23T14:49:03.945Z,55.26
2018-04-23T14:51:29.767Z,57.32
2018-04-23T14:53:55.621Z,56.77
2018-04-23T14:56:21.462Z,54.78
2018-04-23T14:58:47.321Z,55.28
2018-04-23T15:01:13.285Z,54.47
2018-04-23T15:03:39.122Z,54.77
2018-04-23T15:06:05.802Z,56.45
2018-04-23T15:08:31.664Z,56.36
2018-04-23T15:10:57.540Z,56.24
2018-04-23T15:13:23.432Z,56.82
2018-04-23T15:15:49.311Z,57.22
2018-04-23T15:18:15.174Z,57.72
2018-04-23T15:20:41.053Z,57.72
2018-04-23T15:23:06.917Z,58.08
2018-04-23T15:25:32.781Z,58.59
2018-04-23T15:27:58.771Z,58.41
2018-04-23T15:30:24.606Z,59.58
2018-04-23T15:32:50.460Z,58.37
2018-04-23T15:35:16.337Z,57.00
2018-04-23T15:37:42.197Z,55.96
2018-04-23T15:40:08.101Z,54.93
2018-04-23T15:42:34.011Z,53.76
2018-04-23T15:45:00.015Z,52.56
2018-04-23T15:47:25.889Z,52.57
2018-04-23T15:49:51.760Z,52.77
2018-04-23T15:52:17.694Z,53.24
2018-04-23T15:54:43.549Z,52.79
2018-04-23T15:57:09.381Z,52.79
2018-04-23T15:59:35.249Z,53.30
2018-04-23T16:02:01.129Z,52.91
2018-04-23T16:04:27.011Z,52.72
2018-04-23T16:06:52.889Z,52.52
2018-04-23T16:09:18.796Z,52.96
2018-04-23T16:11:44.648Z,52.87
2018-04-23T16:14:10.556Z,53.93
2018-04-23T16:16:36.449Z,54.39
2018-04-23T16:19:02.329Z,55.87
2018-04-23T16:21:28.167Z,55.86
2018-04-23T16:23:54.041Z,56.89
2018-04-23T16:26:19.880Z,58.36
2018-04-23T16:28:45.705Z,58.71
2018-04-23T16:31:11.582Z,58.34
2018-04-23T16:33:37.466Z,60.20
2018-04-23T16:36:03.326Z,60.75
2018-04-23T16:38:29.194Z,60.64
2018-04-23T16:40:55.093Z,60.69
2018-04-23T16:43:20.948Z,60.73
2018-04-23T16:45:46.818Z,60.93
2018-04-23T16:48:12.686Z,61.52
2018-04-23T16:50:38.572Z,61.96
2018-04-23T16:53:04.417Z,62.13
2018-04-23T16:55:30.289Z,61.53
2018-04-23T16:57:56.196Z,61.57
2018-04-23T17:00:22.062Z,61.44
2018-04-23T17:02:47.978Z,61.88
2018-04-23T17:05:13.815Z,62.19
2018-04-23T17:07:39.719Z,62.21
2018-04-23T17:10:05.654Z,62.47
2018-04-23T17:12:31.515Z,62.78
2018-04-23T17:14:57.397Z,63.24
2018-04-23T17:17:23.274Z,62.71
2018-04-23T17:19:49.172Z,63.28
2018-04-23T17:22:15.028Z,63.62
2018-04-23T17:24:40.903Z,64.00
2018-04-23T17:27:06.728Z,64.02
2018-04-23T17:29:32.609Z,64.33
2018-04-23T17:31:58.474Z,63.91
2018-04-23T17:34:24.343Z,63.93
2018-04-23T17:36:50.185Z,64.92
2018-04-23T17:39:16.472Z,65.65
2018-04-23T17:41:42.656Z,65.92
2018-04-23T17:44:08.513Z,66.36
2018-04-23T17:46:34.367Z,67.22
2018-04-23T17:49:00.202Z,66.56
2018-04-23T17:51:26.076Z,68.68
2018-04-23T17:53:52.030Z,69.12
2018-04-23T17:56:17.901Z,70.43
2018-04-23T17:58:44.580Z,65.21
2018-04-23T18:01:10.430Z,65.66
2018-04-23T18:03:36.294Z,63.77
2018-04-23T18:06:02.144Z,65.50
2018-04-23T18:08:28.001Z,63.36
2018-04-23T18:10:53.871Z,63.43
2018-04-23T18:13:19.729Z,64.01
2018-04-23T18:15:45.562Z,65.98
2018-04-23T18:18:11.454Z,64.13
2018-04-23T18:20:37.289Z,65.06
2018-04-23T18:23:03.146Z,63.91
2018-04-23T18:25:29.024Z,63.30
2018-04-23T18:27:54.881Z,62.87
2018-04-23T18:30:20.748Z,63.81
2018-04-23T18:32:46.585Z,64.16
2018-04-23T18:35:12.480Z,66.17
2018-04-23T18:37:38.315Z,66.76
2018-04-23T18:40:04.425Z,66.56
2018-04-23T18:42:30.296Z,67.35
2018-04-23T18:44:56.179Z,67.90
2018-04-23T18:47:22.078Z,68.14
2018-04-23T18:49:47.943Z,67.91
2018-04-23T18:52:13.814Z,68.23
2018-04-23T18:54:39.725Z,69.46
2018-04-23T18:57:05.669Z,69.13
2018-04-23T18:59:31.532Z,68.31
2018-04-23T19:01:57.453Z,68.83
2018-04-23T19:04:23.320Z,69.54
2018-04-23T19:06:49.233Z,69.85
2018-04-23T19:09:15.217Z,70.05
2018-04-23T19:11:41.166Z,69.65
2018-04-23T19:14:07.261Z,69.33
2018-04-23T19:16:33.251Z,68.95
2018-04-23T19:18:59.109Z,68.83
2018-04-23T19:21:24.984Z,69.55
2018-04-23T19:23:50.990Z,70.28
2018-04-23T19:26:17.140Z,69.99
2018-04-23T19:28:43.010Z,69.94
2018-04-23T19:31:08.905Z,70.46
2018-04-23T19:33:34.774Z,71.70
2018-04-23T19:36:00.806Z,71.87
2018-04-23T19:38:26.593Z,71.92
2018-04-23T19:40:52.466Z,72.62
2018-04-23T19:43:18.375Z,73.81
2018-04-23T19:45:44.250Z,75.46
2018-04-23T19:48:10.173Z,75.47
2018-04-23T19:50:36.100Z,75.25
2018-04-23T19:53:01.971Z,75.03
2018-04-23T19:55:27.837Z,76.18
2018-04-23T19:57:53.720Z,75.30
2018-04-23T20:00:19.581Z,76.57
2018-04-23T20:02:45.448Z,75.57
2018-04-23T20:05:11.357Z,75.00
2018-04-23T20:07:37.247Z,74.74
2018-04-23T20:10:03.246Z,74.34
2018-04-23T20:12:29.165Z,75.35
2018-04-23T20:14:55.045Z,76.15
2018-04-23T20:17:20.911Z,75.44
2018-04-23T20:19:46.808Z,76.97
2018-04-23T20:22:12.699Z,76.71
2018-04-23T20:24:38.565Z,76.71
2018-04-23T20:27:04.429Z,77.84
2018-04-23T20:29:30.303Z,77.77
2018-04-23T20:31:56.166Z,78.98
2018-04-23T20:34:22.089Z,79.26
2018-04-23T20:36:47.936Z,77.85
2018-04-23T20:39:13.832Z,77.15
2018-04-23T20:41:39.672Z,76.73
2018-04-23T20:44:05.545Z,76.56
2018-04-23T20:46:31.413Z,76.50
2018-04-23T20:48:57.285Z,76.75
2018-04-23T20:51:23.158Z,76.82
2018-04-23T20:53:49.037Z,76.53
2018-04-23T20:56:14.895Z,78.21
2018-04-23T20:58:40.764Z,77.85
2018-04-23T21:01:06.614Z,76.99
2018-04-23T21:03:39.382Z,77.41
2018-04-23T21:06:05.241Z,77.04
2018-04-23T21:08:31.088Z,76.63
2018-04-23T21:11:04.010Z,77.36
2018-04-23T21:13:29.907Z,77.86
2018-04-23T21:15:55.779Z,77.27
2018-04-23T21:18:21.641Z,76.82
2018-04-23T21:20:47.529Z,76.02
2018-04-23T21:23:13.447Z,75.60
2018-04-23T21:25:39.336Z,76.23
2018-04-23T21:28:05.241Z,78.20
2018-04-23T21:30:31.085Z,79.33
2018-04-23T21:35:22.668Z,78.04
2018-04-23T21:37:48.559Z,77.58
2018-04-23T21:40:14.398Z,76.74
2018-04-23T21:42:40.234Z,76.31
2018-04-23T21:45:06.105Z,76.34
2018-04-23T21:47:31.953Z,76.83
2018-04-23T21:49:57.817Z,78.33
2018-04-23T21:52:23.668Z,78.45
2018-04-23T21:54:49.548Z,77.84
2018-04-23T21:57:15.404Z,77.45
2018-04-23T21:59:41.279Z,77.97
2018-04-23T22:02:07.211Z,78.34
2018-04-23T22:04:33.093Z,78.89
2018-04-23T22:06:58.957Z,78.71
2018-04-23T22:09:24.811Z,77.69
2018-04-23T22:11:50.645Z,76.89
2018-04-23T22:14:16.540Z,76.58
2018-04-23T22:16:42.433Z,76.39
2018-04-23T22:19:08.301Z,76.53
2018-04-23T22:21:34.201Z,76.82
2018-04-23T22:24:00.038Z,77.47
2018-04-23T22:26:25.905Z,77.20
2018-04-23T22:28:51.758Z,77.44
2018-04-23T22:31:17.638Z,77.27
2018-04-23T22:33:43.461Z,79.29
2018-04-23T22:36:09.308Z,81.22
2018-04-23T22:38:35.194Z,79.89
2018-04-23T22:41:01.038Z,79.22
2018-04-23T22:43:26.905Z,79.04
2018-04-23T22:45:52.779Z,79.40
2018-04-23T22:48:18.600Z,78.71
2018-04-23T22:50:44.441Z,78.38
2018-04-23T22:53:10.301Z,78.43
2018-04-23T22:55:36.190Z,78.94
2018-04-23T22:58:02.049Z,79.05
2018-04-23T23:00:27.901Z,79.35
2018-04-23T23:02:53.762Z,80.41
2018-04-23T23:05:19.632Z,80.22
2018-04-23T23:07:45.507Z,80.96
2018-04-23T23:10:11.356Z,82.37
2018-04-23T23:12:37.240Z,82.07
2018-04-23T23:15:03.208Z,81.81
2018-04-23T23:17:29.028Z,81.36
2018-04-23T23:19:54.889Z,80.98
2018-04-23T23:22:20.743Z,81.83
2018-04-23T23:24:46.636Z,81.69
2018-04-23T23:27:12.479Z,80.89
2018-04-23T23:29:38.316Z,80.88
2018-04-23T23:32:04.191Z,80.68
2018-04-23T23:34:30.037Z,81.02
2018-04-23T23:36:55.881Z,80.25
2018-04-23T23:39:21.747Z,80.24
2018-04-23T23:41:47.636Z,81.39
2018-04-23T23:44:13.520Z,82.98
2018-04-23T23:46:39.422Z,81.94
2018-04-23T23:49:05.614Z,82.98
2018-04-23T23:51:31.488Z,82.68
2018-04-23T23:53:57.401Z,82.73
2018-04-23T23:56:23.244Z,82.74
2018-04-23T23:58:49.132Z,82.86
